11°C Temp
7°C Dewpoint
77% Humidity
Temperature
3 KM/H
2 MPH
2 KTS
Calm
Due North

Wind Speed
Mostly Scattered
Clouds
Pressure 1005.76 (hPa) - 29.7 (in)
Visibility 6.0 (mi) - 9.7 (km)

Current Conditions
LIRQ
Location 70(km)
Metar :LIRQ 231750Z VRB02KT 9999 SCT050 11/07 Q1006
Tue 23rd April 19:50 pm

Airport
  Metar Aviation API Data Provided by https://www.checkwx.com/ PHP scripts by weather34.com ©2024